D73

Monroe-Walton County Airport

Monroe, Georgia, USA
METAR KD73 210935Z AUTO 00000KT 10SM CLR 22/21 A2990 RMK AO2 T02240207
Observed Flight Rules
Jun-21 @ 09:35 UTC (28 minutes ago) Visual Flight Rules
Visibility Clouds
10 miles
  • Clear skies
Temperatures Readings
Current 22°C / 72°F
Dewpoint 21°C / 70°F
Humidity 94%
Altimeter 29.9" Hg
Pressure 1013 hPa
Elevation 267
METAR KD73 210935Z AUTO 00000KT 10SM CLR 22/21 A2990 RMK AO2 T02240207
Observed Flight Rules
Jun-21 @ 09:35 UTC
(28 minutes ago)
VFR
Clouds
  • Clear skies
Temperature Dewpoint
22°C / 72°F 21°C / 70°F
Humidity Altimeter Pressure
94% 29.9" Hg 1013 hPa